createdAt,value
2023-04-27T00:02:01.926Z,95222.09
2023-04-27T00:04:30.032Z,95221.56
2023-04-27T00:06:58.012Z,95210.75
2023-04-27T00:09:25.874Z,95212.97
2023-04-27T00:11:53.750Z,95212.16
2023-04-27T00:14:21.601Z,95212.00
2023-04-27T00:16:49.488Z,95211.38
2023-04-27T00:19:18.683Z,95214.06
2023-04-27T00:21:46.470Z,95202.94
2023-04-27T00:24:14.216Z,95213.78
2023-04-27T00:26:42.159Z,95213.03
2023-04-27T00:29:09.957Z,95196.50
2023-04-27T00:31:37.805Z,95204.91
2023-04-27T00:34:05.793Z,95192.34
2023-04-27T00:36:36.079Z,95197.13
2023-04-27T00:39:06.439Z,95201.59
2023-04-27T00:41:34.295Z,95197.91
2023-04-27T00:44:02.062Z,95194.41
2023-04-27T00:46:30.853Z,95186.00
2023-04-27T00:48:58.758Z,95202.06
2023-04-27T00:51:28.171Z,95194.91
2023-04-27T00:53:58.933Z,95188.53
2023-04-27T00:56:26.685Z,95189.00
2023-04-27T00:58:55.925Z,95194.09
2023-04-27T01:01:24.692Z,95195.63
2023-04-27T01:03:52.798Z,95198.22
2023-04-27T01:06:20.742Z,95196.91
2023-04-27T01:08:48.574Z,95201.84
2023-04-27T01:11:17.747Z,95200.09
2023-04-27T01:13:46.232Z,95203.44
2023-04-27T01:16:14.108Z,95208.34
2023-04-27T01:18:41.880Z,95205.00
2023-04-27T01:21:09.697Z,95206.59
2023-04-27T01:23:38.972Z,95194.50
2023-04-27T01:26:06.754Z,95188.59
2023-04-27T01:28:34.622Z,95200.69
2023-04-27T01:31:02.437Z,95196.44
2023-04-27T01:33:30.187Z,95201.69
2023-04-27T01:35:57.937Z,95193.56
2023-04-27T01:38:25.764Z,95198.06
2023-04-27T01:40:55.509Z,95200.13
2023-04-27T01:43:23.264Z,95195.38
2023-04-27T01:45:51.060Z,95196.50
2023-04-27T01:48:18.910Z,95201.59
2023-04-27T01:50:46.774Z,95188.09
2023-04-27T01:53:14.553Z,95207.47
2023-04-27T01:55:42.462Z,95201.91
2023-04-27T01:58:11.640Z,95209.38
2023-04-27T02:00:41.445Z,95211.28
2023-04-27T02:03:09.555Z,95204.78
2023-04-27T02:05:37.434Z,95198.63
2023-04-27T02:08:05.594Z,95208.47
2023-04-27T02:10:33.379Z,95206.75
2023-04-27T02:13:01.125Z,95201.34
2023-04-27T02:15:30.380Z,95208.34
2023-04-27T02:17:58.633Z,95213.44
2023-04-27T02:20:26.727Z,95217.13
2023-04-27T02:22:54.646Z,95218.72
2023-04-27T02:25:22.592Z,95215.84
2023-04-27T02:27:50.424Z,95221.06
2023-04-27T02:30:18.827Z,95213.47
2023-04-27T02:32:48.519Z,95223.59
2023-04-27T02:35:16.373Z,95226.47
2023-04-27T02:37:44.194Z,95225.19
2023-04-27T02:40:12.700Z,95233.16
2023-04-27T02:42:40.515Z,95224.09
2023-04-27T02:45:09.323Z,95227.09
2023-04-27T02:47:37.737Z,95229.94
2023-04-27T02:50:07.912Z,95229.50
2023-04-27T02:52:37.404Z,95232.34
2023-04-27T02:55:05.558Z,95237.09
2023-04-27T02:57:33.378Z,95242.97
2023-04-27T03:00:02.750Z,95228.53
2023-04-27T03:02:31.546Z,95231.06
2023-04-27T03:04:59.370Z,95223.28
2023-04-27T03:07:28.942Z,95228.06
2023-04-27T03:09:57.119Z,95224.72
2023-04-27T03:12:24.857Z,95236.66
2023-04-27T03:14:53.099Z,95230.44
2023-04-27T03:17:21.018Z,95233.47
2023-04-27T03:19:49.546Z,95232.03
2023-04-27T03:22:17.361Z,95233.63
2023-04-27T03:24:46.772Z,95235.69
2023-04-27T03:27:14.612Z,95234.25
2023-04-27T03:29:43.615Z,95226.31
2023-04-27T03:32:12.561Z,95240.91
2023-04-27T03:34:40.390Z,95234.88
2023-04-27T03:37:08.270Z,95239.00
2023-04-27T03:39:38.044Z,95245.03
2023-04-27T03:42:07.309Z,95244.25
2023-04-27T03:44:36.402Z,95248.25
2023-04-27T03:47:09.057Z,95246.19
2023-04-27T03:49:39.014Z,95248.38
2023-04-27T03:52:08.226Z,95240.44
2023-04-27T03:54:36.334Z,95246.97
2023-04-27T03:57:04.406Z,95239.50
2023-04-27T03:59:33.598Z,95257.94
2023-04-27T04:02:02.290Z,95255.22
2023-04-27T04:04:30.417Z,95258.56
2023-04-27T04:06:58.408Z,95262.22
2023-04-27T04:09:26.427Z,95275.59
2023-04-27T04:11:55.587Z,95280.50
2023-04-27T04:14:23.621Z,95280.16
2023-04-27T04:16:53.080Z,95281.31
2023-04-27T04:19:22.281Z,95288.78
2023-04-27T04:21:50.713Z,95288.13
2023-04-27T04:24:19.112Z,95296.56
2023-04-27T04:26:47.248Z,95301.78
2023-04-27T04:29:15.400Z,95293.84
2023-04-27T04:31:43.646Z,95303.69
2023-04-27T04:34:13.003Z,95306.53
2023-04-27T04:36:41.617Z,95302.56
2023-04-27T04:39:09.671Z,95302.88
2023-04-27T04:41:37.915Z,95308.94
2023-04-27T04:44:06.158Z,95299.22
2023-04-27T04:46:35.014Z,95303.06
2023-04-27T04:49:02.938Z,95296.88
2023-04-27T04:51:32.073Z,95290.19
2023-04-27T04:54:01.801Z,95288.59
2023-04-27T04:56:29.963Z,95288.44
2023-04-27T04:58:58.076Z,95289.06
2023-04-27T05:01:26.113Z,95299.69
2023-04-27T05:03:54.308Z,95300.94
2023-04-27T05:06:22.428Z,95294.81
2023-04-27T05:08:51.593Z,95316.16
2023-04-27T05:11:19.398Z,95320.88
2023-04-27T05:13:47.969Z,95319.44
2023-04-27T05:16:16.249Z,95323.59
2023-04-27T05:18:44.132Z,95326.88
2023-04-27T05:21:15.878Z,95330.31
2023-04-27T05:23:43.736Z,95331.22
2023-04-27T05:26:17.048Z,95327.91
2023-04-27T05:28:47.017Z,95329.25
2023-04-27T05:31:14.886Z,95317.44
2023-04-27T05:33:42.775Z,95311.09
2023-04-27T05:36:11.026Z,95326.66
2023-04-27T05:38:40.362Z,95327.75
2023-04-27T05:41:08.412Z,95332.66
2023-04-27T05:43:38.701Z,95341.13
2023-04-27T05:46:06.929Z,95347.31
2023-04-27T05:48:38.176Z,95355.44
2023-04-27T05:51:06.580Z,95361.25
2023-04-27T05:53:34.997Z,95351.31
2023-04-27T05:56:04.469Z,95357.59
2023-04-27T05:58:33.160Z,95352.38
2023-04-27T06:01:03.596Z,95350.09
2023-04-27T06:03:32.186Z,95346.00
2023-04-27T06:06:01.869Z,95346.91
2023-04-27T06:08:29.857Z,95343.72
2023-04-27T06:10:57.824Z,95336.38
2023-04-27T06:13:25.634Z,95349.84
2023-04-27T06:15:53.541Z,95333.34
2023-04-27T06:18:22.743Z,95344.81
2023-04-27T06:20:50.556Z,95346.09
2023-04-27T06:23:18.400Z,95352.41
2023-04-27T06:25:46.242Z,95346.56
2023-04-27T06:28:14.124Z,95355.88
2023-04-27T06:30:41.953Z,95360.31
2023-04-27T06:33:10.434Z,95358.38
2023-04-27T06:35:39.688Z,95343.41
2023-04-27T06:38:08.079Z,95361.41
2023-04-27T06:40:37.052Z,95349.00
2023-04-27T06:43:05.034Z,95355.13
2023-04-27T06:45:32.972Z,95365.41
2023-04-27T06:48:01.015Z,95362.72
2023-04-27T06:50:29.221Z,95365.22
2023-04-27T06:52:58.464Z,95364.38
2023-04-27T06:55:26.418Z,95363.53
2023-04-27T06:57:54.303Z,95363.88
2023-04-27T07:00:22.906Z,95355.75
2023-04-27T07:02:51.523Z,95363.84
2023-04-27T07:05:19.975Z,95361.56
2023-04-27T07:07:47.736Z,95350.47
2023-04-27T07:10:17.212Z,95358.47
2023-04-27T07:12:45.143Z,95371.75
2023-04-27T07:15:13.153Z,95372.31
2023-04-27T07:17:41.545Z,95369.69
2023-04-27T07:20:10.501Z,95372.31
2023-04-27T07:22:38.399Z,95373.03
2023-04-27T07:25:07.399Z,95368.22
2023-04-27T07:27:36.664Z,95361.69
2023-04-27T07:30:05.459Z,95369.03
2023-04-27T07:32:33.582Z,95356.84
2023-04-27T07:35:01.764Z,95364.88
2023-04-27T07:37:29.875Z,95372.03
2023-04-27T07:39:59.570Z,95368.28
2023-04-27T07:42:27.452Z,95367.69
2023-04-27T07:44:57.468Z,95362.22
2023-04-27T07:47:25.270Z,95357.69
2023-04-27T07:49:53.197Z,95367.56
2023-04-27T07:52:21.249Z,95357.84
2023-04-27T07:54:49.039Z,95366.03
2023-04-27T07:57:16.839Z,95366.75
2023-04-27T07:59:44.784Z,95370.94
2023-04-27T08:02:19.824Z,95371.13
2023-04-27T08:04:49.073Z,95367.59
2023-04-27T08:07:17.888Z,95380.69
2023-04-27T08:09:46.229Z,95377.91
2023-04-27T08:12:14.173Z,95383.66
2023-04-27T08:14:42.150Z,95379.88
2023-04-27T08:17:10.042Z,95391.16
2023-04-27T08:19:39.618Z,95387.72
2023-04-27T08:22:07.501Z,95384.41
2023-04-27T08:24:35.322Z,95379.50
2023-04-27T08:27:04.130Z,95381.06
2023-04-27T08:29:32.253Z,95381.06
2023-04-27T08:32:03.141Z,95378.03
2023-04-27T08:34:31.919Z,95376.22
2023-04-27T08:37:02.306Z,95380.84
2023-04-27T08:39:30.229Z,95374.72
2023-04-27T08:41:58.084Z,95375.75
2023-04-27T08:44:26.005Z,95378.63
2023-04-27T08:46:53.978Z,95377.50
2023-04-27T08:49:22.067Z,95378.19
2023-04-27T08:51:50.096Z,95375.72
2023-04-27T08:54:20.619Z,95375.84
2023-04-27T08:56:48.504Z,95373.28
2023-04-27T08:59:17.876Z,95373.03
2023-04-27T09:01:46.942Z,95375.25
2023-04-27T09:04:16.104Z,95377.38
2023-04-27T09:06:44.140Z,95371.13
2023-04-27T09:09:24.450Z,95373.63
2023-04-27T09:11:52.322Z,95367.84
2023-04-27T09:14:21.655Z,95372.34
2023-04-27T09:16:56.156Z,95368.09
2023-04-27T09:19:27.834Z,95374.72
2023-04-27T09:22:08.425Z,95370.66
2023-04-27T09:24:38.039Z,95360.53
2023-04-27T09:27:08.630Z,95353.72
2023-04-27T09:29:38.053Z,95353.63
2023-04-27T09:32:17.161Z,95348.84
2023-04-27T09:34:45.829Z,95348.69
2023-04-27T09:37:16.801Z,95359.16
2023-04-27T09:39:47.070Z,95354.97
2023-04-27T09:42:16.100Z,95354.34
2023-04-27T09:44:43.861Z,95355.22
2023-04-27T09:47:12.118Z,95348.50
2023-04-27T09:49:39.959Z,95349.09
2023-04-27T09:52:07.766Z,95339.81
2023-04-27T09:54:36.646Z,95355.13
2023-04-27T09:57:17.373Z,95354.13
2023-04-27T10:00:02.149Z,95350.88
2023-04-27T10:02:53.192Z,95347.91
2023-04-27T10:06:10.626Z,95350.91
2023-04-27T10:08:39.922Z,95345.81
2023-04-27T10:11:15.335Z,95333.88
2023-04-27T10:13:54.787Z,95334.00
2023-04-27T10:16:23.337Z,95322.47
2023-04-27T10:18:56.737Z,95325.91
2023-04-27T10:21:24.783Z,95321.41
2023-04-27T10:23:54.480Z,95322.63
2023-04-27T10:26:26.252Z,95315.41
2023-04-27T10:28:59.707Z,95309.88
2023-04-27T10:31:33.854Z,95322.69
2023-04-27T10:34:09.664Z,95315.63
2023-04-27T10:36:38.205Z,95314.50
2023-04-27T10:39:16.978Z,95317.53
2023-04-27T10:41:52.815Z,95307.28
2023-04-27T10:44:26.812Z,95312.47
2023-04-27T10:46:56.015Z,95309.53
2023-04-27T10:49:24.386Z,95314.31
2023-04-27T10:51:52.758Z,95311.63
2023-04-27T10:54:20.914Z,95314.66
2023-04-27T10:56:48.765Z,95312.88
2023-04-27T10:59:16.663Z,95312.16
2023-04-27T11:01:51.396Z,95313.06
2023-04-27T11:04:19.586Z,95309.59
2023-04-27T11:06:47.841Z,95313.41
2023-04-27T11:09:26.055Z,95314.19
2023-04-27T11:11:54.029Z,95310.56
2023-04-27T11:14:22.191Z,95316.22
2023-04-27T11:16:52.151Z,95303.31
2023-04-27T11:19:19.994Z,95311.47
2023-04-27T11:21:47.857Z,95320.91
2023-04-27T11:24:15.889Z,95316.72
2023-04-27T11:26:44.093Z,95311.41
2023-04-27T11:29:14.120Z,95323.16
2023-04-27T11:31:47.337Z,95311.44
2023-04-27T11:34:19.463Z,95315.72
2023-04-27T11:37:07.195Z,95321.06
2023-04-27T11:39:42.982Z,95324.59
2023-04-27T11:42:19.279Z,95317.97
2023-04-27T11:44:54.351Z,95321.06
2023-04-27T11:47:23.016Z,95322.53
2023-04-27T11:49:53.437Z,95323.09
2023-04-27T11:52:21.534Z,95324.94
2023-04-27T11:54:50.765Z,95329.59
2023-04-27T11:57:22.133Z,95326.34
2023-04-27T11:59:50.104Z,95326.66
2023-04-27T12:02:18.150Z,95334.63
2023-04-27T12:04:46.727Z,95342.00
2023-04-27T12:07:16.357Z,95330.25
2023-04-27T12:09:44.613Z,95331.06
2023-04-27T12:12:13.307Z,95328.00
2023-04-27T12:14:42.233Z,95334.84
2023-04-27T12:17:10.535Z,95323.31
2023-04-27T12:19:38.603Z,95330.47
2023-04-27T12:22:07.073Z,95327.91
2023-04-27T12:24:37.070Z,95337.59
2023-04-27T12:27:05.459Z,95331.28
2023-04-27T12:29:33.311Z,95324.72
2023-04-27T12:32:01.471Z,95331.66
2023-04-27T12:34:29.458Z,95328.84
2023-04-27T12:36:57.338Z,95326.00
2023-04-27T12:39:25.712Z,95329.94
2023-04-27T12:41:55.528Z,95319.75
2023-04-27T12:44:23.379Z,95328.84
2023-04-27T12:46:51.359Z,95333.03
2023-04-27T12:49:19.349Z,95327.88
2023-04-27T12:51:47.883Z,95323.28
2023-04-27T12:54:16.047Z,95307.09
2023-04-27T12:56:44.215Z,95312.19
2023-04-27T12:59:13.507Z,95319.84
2023-04-27T13:01:41.582Z,95315.31
2023-04-27T13:04:09.531Z,95314.63
2023-04-27T13:06:38.198Z,95320.72
2023-04-27T13:09:06.795Z,95312.63
2023-04-27T13:11:34.656Z,95320.72
2023-04-27T13:14:04.822Z,95320.63
2023-04-27T13:16:34.157Z,95315.88
2023-04-27T13:19:02.099Z,95313.25
2023-04-27T13:21:30.182Z,95312.34
2023-04-27T13:24:11.290Z,95312.19
2023-04-27T13:26:39.235Z,95312.28
2023-04-27T13:29:07.126Z,95311.44
2023-04-27T13:31:36.544Z,95314.31
2023-04-27T13:34:04.820Z,95306.13
2023-04-27T13:36:33.087Z,95301.38
2023-04-27T13:39:03.085Z,95305.97
2023-04-27T13:41:30.899Z,95303.84
2023-04-27T13:43:58.810Z,95306.56
2023-04-27T13:46:26.872Z,95303.56
2023-04-27T13:48:57.062Z,95299.06
2023-04-27T13:51:29.709Z,95307.59
2023-04-27T13:54:02.759Z,95308.81
2023-04-27T13:56:30.873Z,95307.94
2023-04-27T13:58:58.690Z,95295.78
2023-04-27T14:01:27.398Z,95296.31
2023-04-27T14:03:57.253Z,95285.00
2023-04-27T14:06:26.967Z,95292.38
2023-04-27T14:08:55.670Z,95283.19
2023-04-27T14:11:23.990Z,95281.91
2023-04-27T14:13:51.897Z,95272.66
2023-04-27T14:16:21.967Z,95281.19
2023-04-27T14:18:50.224Z,95276.63
2023-04-27T14:21:19.873Z,95275.25
2023-04-27T14:23:47.818Z,95263.06
2023-04-27T14:26:15.673Z,95276.56
2023-04-27T14:28:43.533Z,95274.63
2023-04-27T14:31:11.341Z,95275.13
2023-04-27T14:33:39.217Z,95276.72
2023-04-27T14:36:07.413Z,95273.00
2023-04-27T14:38:36.584Z,95281.44
2023-04-27T14:41:04.440Z,95276.63
2023-04-27T14:43:32.319Z,95278.53
2023-04-27T14:46:19.225Z,95287.75
2023-04-27T14:48:49.095Z,95277.38
2023-04-27T14:51:17.640Z,95264.44
2023-04-27T14:53:47.073Z,95272.25
2023-04-27T14:56:15.102Z,95276.94
2023-04-27T14:58:42.905Z,95267.81
2023-04-27T15:01:10.870Z,95274.16
2023-04-27T15:03:38.945Z,95272.69
2023-04-27T15:06:07.292Z,95263.91
2023-04-27T15:08:35.283Z,95265.34
2023-04-27T15:11:04.732Z,95269.09
2023-04-27T15:13:32.716Z,95266.50
2023-04-27T15:16:00.983Z,95258.59
2023-04-27T15:18:28.902Z,95269.41
2023-04-27T15:20:57.467Z,95267.59
2023-04-27T15:23:26.400Z,95268.28
2023-04-27T15:25:56.599Z,95265.41
2023-04-27T15:28:28.906Z,95267.31
2023-04-27T15:30:56.944Z,95264.69
2023-04-27T15:33:25.045Z,95257.28
2023-04-27T15:35:53.650Z,95247.47
2023-04-27T15:38:21.529Z,95252.91
2023-04-27T15:40:49.364Z,95247.44
2023-04-27T15:43:17.390Z,95252.47
2023-04-27T15:45:47.066Z,95255.19
2023-04-27T15:48:15.297Z,95258.38
2023-04-27T15:50:43.268Z,95266.28
2023-04-27T15:53:11.175Z,95255.69
2023-04-27T15:55:38.927Z,95260.06
2023-04-27T15:58:06.706Z,95272.50
2023-04-27T16:00:35.365Z,95265.84
2023-04-27T16:03:08.747Z,95262.44
2023-04-27T16:05:38.080Z,95261.75
2023-04-27T16:08:06.185Z,95267.69
2023-04-27T16:10:34.144Z,95264.22
2023-04-27T16:13:01.898Z,95261.91
2023-04-27T16:15:29.945Z,95265.81
2023-04-27T16:17:57.958Z,95246.81
2023-04-27T16:20:28.973Z,95238.69
2023-04-27T16:22:56.829Z,95251.28
2023-04-27T16:25:24.583Z,95251.06
2023-04-27T16:27:52.551Z,95247.72
2023-04-27T16:30:20.667Z,95253.97
2023-04-27T16:32:48.643Z,95253.31
2023-04-27T16:35:16.599Z,95256.59
2023-04-27T16:37:45.742Z,95255.25
2023-04-27T16:40:16.762Z,95249.59
2023-04-27T16:42:44.551Z,95252.84
2023-04-27T16:45:12.663Z,95246.34
2023-04-27T16:47:41.914Z,95247.84
2023-04-27T16:50:10.604Z,95237.75
2023-04-27T16:52:38.406Z,95242.50
2023-04-27T16:55:09.039Z,95242.22
2023-04-27T16:57:37.064Z,95238.72
2023-04-27T17:00:09.578Z,95236.34
2023-04-27T17:02:37.495Z,95230.16
2023-04-27T17:05:06.351Z,95232.44
2023-04-27T17:07:34.141Z,95238.91
2023-04-27T17:10:01.938Z,95236.91
2023-04-27T17:12:31.106Z,95245.13
2023-04-27T17:14:58.924Z,95240.44
2023-04-27T17:17:26.884Z,95239.63
2023-04-27T17:19:54.719Z,95236.91
2023-04-27T17:22:22.476Z,95249.41
2023-04-27T17:24:50.307Z,95239.28
2023-04-27T17:27:18.196Z,95243.53
2023-04-27T17:29:49.054Z,95236.72
2023-04-27T17:32:16.830Z,95226.03
2023-04-27T17:34:45.222Z,95230.88
2023-04-27T17:37:14.728Z,95234.00
2023-04-27T17:39:42.490Z,95232.53
2023-04-27T17:42:12.352Z,95240.31
2023-04-27T17:44:42.064Z,95230.09
2023-04-27T17:47:11.534Z,95232.06
2023-04-27T17:49:39.331Z,95237.06
2023-04-27T17:52:07.219Z,95244.91
2023-04-27T17:54:34.984Z,95240.00
2023-04-27T17:57:02.977Z,95246.69
2023-04-27T17:59:30.830Z,95250.91
2023-04-27T18:01:58.743Z,95246.09
2023-04-27T18:04:28.165Z,95245.22
2023-04-27T18:06:56.795Z,95248.97
2023-04-27T18:09:26.231Z,95247.00
2023-04-27T18:11:54.163Z,95245.66
2023-04-27T18:14:21.981Z,95250.06
2023-04-27T18:16:49.784Z,95244.66
2023-04-27T18:19:17.708Z,95241.44
2023-04-27T18:21:46.942Z,95248.28
2023-04-27T18:24:14.710Z,95249.25
2023-04-27T18:26:43.864Z,95250.16
2023-04-27T18:29:11.782Z,95247.56
2023-04-27T18:31:39.716Z,95249.50
2023-04-27T18:34:07.467Z,95261.06
2023-04-27T18:36:35.226Z,95253.59
2023-04-27T18:39:04.630Z,95255.41
2023-04-27T18:41:32.490Z,95262.41
2023-04-27T18:44:05.024Z,95272.09
2023-04-27T18:46:33.089Z,95273.88
2023-04-27T18:49:01.957Z,95271.34
2023-04-27T18:51:32.162Z,95272.72
2023-04-27T18:54:00.113Z,95270.13
2023-04-27T18:56:29.427Z,95270.91
2023-04-27T18:58:57.228Z,95282.00
2023-04-27T19:01:26.262Z,95276.66
2023-04-27T19:03:54.550Z,95284.38
2023-04-27T19:06:22.641Z,95280.81
2023-04-27T19:08:51.001Z,95286.16
2023-04-27T19:11:22.132Z,95287.13
2023-04-27T19:13:53.987Z,95303.53
2023-04-27T19:16:24.116Z,95278.03
2023-04-27T19:18:51.938Z,95287.94
2023-04-27T19:21:19.777Z,95295.06
2023-04-27T19:23:47.590Z,95294.44
2023-04-27T19:26:15.514Z,95289.88
2023-04-27T19:28:43.401Z,95293.03
2023-04-27T19:31:12.671Z,95286.53
2023-04-27T19:33:46.840Z,95292.81
2023-04-27T19:36:14.955Z,95281.34
2023-04-27T19:38:42.760Z,95280.97
2023-04-27T19:41:10.629Z,95275.84
2023-04-27T19:43:38.433Z,95274.81
2023-04-27T19:46:06.246Z,95274.63
2023-04-27T19:48:35.542Z,95277.78
2023-04-27T19:51:03.358Z,95275.84
2023-04-27T19:53:31.225Z,95280.56
2023-04-27T19:56:00.739Z,95288.44
2023-04-27T19:58:29.002Z,95280.72
2023-04-27T20:00:56.870Z,95281.69
2023-04-27T20:03:24.822Z,95281.88
2023-04-27T20:05:54.601Z,95278.47
2023-04-27T20:08:22.960Z,95280.63
2023-04-27T20:10:50.813Z,95283.16
2023-04-27T20:13:18.579Z,95276.63
2023-04-27T20:15:46.600Z,95272.81
2023-04-27T20:18:14.473Z,95284.59
2023-04-27T20:20:42.957Z,95273.19
2023-04-27T20:23:12.093Z,95280.88
2023-04-27T20:25:39.889Z,95270.19
2023-04-27T20:28:07.701Z,95270.16
2023-04-27T20:30:35.623Z,95265.97
2023-04-27T20:33:06.844Z,95265.56
2023-04-27T20:35:36.204Z,95264.56
2023-04-27T20:38:04.026Z,95269.44
2023-04-27T20:40:33.310Z,95263.53
2023-04-27T20:43:04.084Z,95264.66
2023-04-27T20:45:32.126Z,95273.72
2023-04-27T20:48:00.003Z,95270.53
2023-04-27T20:50:27.974Z,95272.00
2023-04-27T20:52:55.814Z,95267.63
2023-04-27T20:55:23.800Z,95257.53
2023-04-27T20:57:52.988Z,95258.28
2023-04-27T21:00:21.166Z,95250.16
2023-04-27T21:02:49.134Z,95258.00
2023-04-27T21:05:17.130Z,95261.28
2023-04-27T21:07:44.902Z,95254.03
2023-04-27T21:10:12.816Z,95251.97
2023-04-27T21:12:40.615Z,95252.69
2023-04-27T21:15:10.840Z,95260.72
2023-04-27T21:17:38.688Z,95263.09
2023-04-27T21:20:07.763Z,95252.50
2023-04-27T21:22:36.244Z,95240.88
2023-04-27T21:25:04.652Z,95238.56
2023-04-27T21:27:33.618Z,95240.25
2023-04-27T21:30:01.421Z,95230.72
2023-04-27T21:32:30.653Z,95242.16
2023-04-27T21:34:58.461Z,95241.13
2023-04-27T21:37:26.339Z,95235.56
2023-04-27T21:39:54.086Z,95242.63
2023-04-27T21:42:21.869Z,95231.22
2023-04-27T21:44:49.650Z,95229.63
2023-04-27T21:47:18.474Z,95234.13
2023-04-27T21:49:47.783Z,95222.19
2023-04-27T21:52:15.790Z,95226.22
2023-04-27T21:54:43.835Z,95231.41
2023-04-27T21:57:11.832Z,95220.19
2023-04-27T21:59:39.708Z,95218.03
2023-04-27T22:02:08.069Z,95228.44
2023-04-27T22:04:38.434Z,95221.81
2023-04-27T22:07:10.513Z,95224.63
2023-04-27T22:09:38.680Z,95223.84
2023-04-27T22:12:09.848Z,95223.22
2023-04-27T22:14:37.762Z,95219.31
2023-04-27T22:17:08.052Z,95219.38
2023-04-27T22:19:36.290Z,95227.94
2023-04-27T22:22:04.424Z,95234.66
2023-04-27T22:24:36.319Z,95236.16
2023-04-27T22:27:04.944Z,95236.31
2023-04-27T22:29:33.490Z,95225.72
2023-04-27T22:32:01.601Z,95232.06
2023-04-27T22:34:29.705Z,95232.00
2023-04-27T22:36:59.388Z,95226.84
2023-04-27T22:39:27.312Z,95218.91
2023-04-27T22:41:56.557Z,95227.78
2023-04-27T22:44:27.211Z,95219.31
2023-04-27T22:46:55.453Z,95216.94
2023-04-27T22:49:24.110Z,95218.22
2023-04-27T22:51:54.108Z,95207.91
2023-04-27T22:54:22.076Z,95211.38
2023-04-27T22:56:50.022Z,95198.13
2023-04-27T22:59:22.751Z,95206.59
2023-04-27T23:01:50.802Z,95204.78
2023-04-27T23:04:19.749Z,95206.34
2023-04-27T23:06:48.229Z,95188.13
2023-04-27T23:09:16.238Z,95199.03
2023-04-27T23:11:44.393Z,95191.66
2023-04-27T23:14:12.763Z,95195.19
2023-04-27T23:16:42.029Z,95190.69
2023-04-27T23:19:12.147Z,95195.44
2023-04-27T23:21:40.118Z,95195.09
2023-04-27T23:24:08.376Z,95191.56
2023-04-27T23:26:36.635Z,95185.81
2023-04-27T23:29:04.660Z,95187.84
2023-04-27T23:31:32.631Z,95182.13
2023-04-27T23:34:02.133Z,95182.47
2023-04-27T23:36:30.862Z,95177.72
2023-04-27T23:38:58.624Z,95175.59
2023-04-27T23:41:26.434Z,95169.63
2023-04-27T23:43:54.382Z,95159.53
2023-04-27T23:46:22.538Z,95171.38
2023-04-27T23:48:50.484Z,95174.94
2023-04-27T23:51:19.727Z,95157.22
2023-04-27T23:53:47.578Z,95147.00
2023-04-27T23:56:19.304Z,95156.97
2023-04-27T23:58:47.415Z,95171.88
